Time;durP1;ratioP1;P1;durP2;ratioP2;P2;SDS_P1;SDS_P2;PMS_P1;PMS_P2;Temp;Humidity;BMP_temperature;BMP_pressure;BME280_temperature;BME280_humidity;BME280_pressure;Samples;Min_cycle;Max_cycle;Signal;HPM_P1;HPM_P2
2023/02/20 00:00:35;;;;;;;9.20;2.67;;;;;;;6.07;100.00;96913.38;5040667;28;24467;-78
2023/02/20 00:03:02;;;;;;;4.10;2.30;;;;;;;6.07;100.00;96918.53;5041213;28;24836;-78
2023/02/20 00:05:28;;;;;;;8.02;3.42;;;;;;;6.07;100.00;96921.09;5032948;28;24443;-76
2023/02/20 00:07:55;;;;;;;8.73;3.17;;;;;;;6.18;100.00;96917.41;5041004;28;24447;-76
2023/02/20 00:10:23;;;;;;;9.30;3.53;;;;;;;6.20;100.00;96920.78;5056533;28;24431;-77
2023/02/20 00:12:49;;;;;;;6.68;3.47;;;;;;;6.19;100.00;96925.09;5051525;28;24462;-78
2023/02/20 00:15:18;;;;;;;8.80;3.83;;;;;;;6.19;100.00;96916.50;5045013;28;20786;-77
2023/02/20 00:17:47;;;;;;;7.15;3.72;;;;;;;6.22;100.00;96917.28;5037471;28;20798;-76
2023/02/20 00:20:13;;;;;;;8.23;3.10;;;;;;;6.21;100.00;96910.44;5047363;28;21358;-77
2023/02/20 00:22:40;;;;;;;7.75;3.47;;;;;;;6.21;100.00;96907.03;5046717;28;24441;-76
2023/02/20 00:25:07;;;;;;;11.40;3.80;;;;;;;6.18;100.00;96894.25;5041663;28;24952;-77
2023/02/20 00:27:33;;;;;;;7.88;3.40;;;;;;;6.13;100.00;96901.25;5037812;28;24439;-76
2023/02/20 00:30:00;;;;;;;10.70;4.53;;;;;;;6.03;100.00;96896.34;5043048;28;25019;-78
2023/02/20 00:32:26;;;;;;;9.95;3.63;;;;;;;5.99;100.00;96891.34;5043202;28;24793;-77
2023/02/20 00:34:54;;;;;;;6.18;2.90;;;;;;;5.92;100.00;96907.78;5040658;28;24447;-77
2023/02/20 00:37:21;;;;;;;7.47;2.65;;;;;;;5.86;100.00;96903.66;5044327;28;21356;-77
2023/02/20 00:39:47;;;;;;;5.45;2.28;;;;;;;5.80;100.00;96902.06;5042688;28;24439;-77
2023/02/20 00:42:13;;;;;;;6.28;2.42;;;;;;;5.78;100.00;96906.44;5046012;28;24432;-78
2023/02/20 00:44:40;;;;;;;5.80;2.20;;;;;;;5.76;100.00;96912.47;5044527;28;24520;-78
2023/02/20 00:47:06;;;;;;;6.30;2.17;;;;;;;5.72;100.00;96914.28;5040514;28;24451;-78
2023/02/20 00:49:33;;;;;;;4.25;2.08;;;;;;;5.76;100.00;96922.75;5043207;28;24432;-78
2023/02/20 00:52:01;;;;;;;6.13;2.33;;;;;;;5.85;100.00;96927.66;5040979;28;24438;-78
2023/02/20 00:54:27;;;;;;;5.10;2.10;;;;;;;5.79;100.00;96926.09;5041222;28;24428;-78
2023/02/20 00:56:53;;;;;;;6.10;2.58;;;;;;;5.80;100.00;96930.34;5040676;28;24446;-78
2023/02/20 00:59:20;;;;;;;4.90;2.25;;;;;;;5.85;100.00;96927.66;5046039;28;24432;-78
2023/02/20 01:01:46;;;;;;;10.05;2.97;;;;;;;5.94;100.00;96927.47;5040358;28;24462;-78
2023/02/20 01:04:13;;;;;;;5.70;2.60;;;;;;;5.96;100.00;96920.53;5045314;28;24438;-78
2023/02/20 01:06:39;;;;;;;6.82;2.08;;;;;;;6.02;100.00;96927.28;5037355;28;24432;-78
2023/02/20 01:09:07;;;;;;;3.63;1.90;;;;;;;6.06;100.00;96908.28;5038564;28;24844;-77
2023/02/20 01:11:34;;;;;;;4.05;2.55;;;;;;;6.07;100.00;96909.97;5030182;28;24440;-77
2023/02/20 01:14:00;;;;;;;6.20;2.60;;;;;;;5.98;100.00;96918.78;5042928;28;24435;-77
2023/02/20 01:16:26;;;;;;;4.22;2.28;;;;;;;5.98;100.00;96913.66;5033378;28;24435;-78
2023/02/20 01:18:53;;;;;;;4.88;2.28;;;;;;;6.03;100.00;96914.34;5041345;28;24981;-77
2023/02/20 01:21:19;;;;;;;5.07;2.80;;;;;;;6.01;100.00;96916.13;5032546;28;24459;-77
2023/02/20 01:23:46;;;;;;;5.88;2.20;;;;;;;6.04;100.00;96912.63;5040729;28;24440;-77
2023/02/20 01:26:14;;;;;;;3.72;2.00;;;;;;;6.06;100.00;96911.72;5041491;28;24439;-78
2023/02/20 01:28:43;;;;;;;5.10;2.25;;;;;;;6.09;100.00;96910.78;5056992;28;20775;-79
2023/02/20 01:31:10;;;;;;;5.32;2.38;;;;;;;6.04;100.00;96910.94;5052570;28;20768;-76
2023/02/20 01:33:39;;;;;;;8.30;3.35;;;;;;;6.07;100.00;96905.66;5053903;28;24440;-77
2023/02/20 01:36:07;;;;;;;4.85;2.70;;;;;;;5.98;100.00;96902.53;5055678;28;24432;-76
2023/02/20 01:38:34;;;;;;;5.28;2.42;;;;;;;5.95;100.00;96908.56;5055478;28;24477;-78
2023/02/20 01:41:01;;;;;;;6.32;2.45;;;;;;;5.97;100.00;96911.09;5056885;28;20789;-77
2023/02/20 01:43:29;;;;;;;5.75;2.60;;;;;;;5.94;100.00;96906.06;5054775;28;24443;-77
2023/02/20 01:46:40;;;;;;;5.15;2.78;;;;;;;5.89;100.00;96900.97;5056542;28;24436;-78
2023/02/20 01:49:10;;;;;;;6.63;2.85;;;;;;;5.81;100.00;96896.03;5044231;28;24431;-77
2023/02/20 01:51:41;;;;;;;9.02;2.60;;;;;;;5.78;100.00;96895.28;5047898;28;20782;-77
2023/02/20 01:54:11;;;;;;;6.53;2.73;;;;;;;5.74;100.00;96889.38;5047485;28;20808;-76
2023/02/20 01:56:38;;;;;;;6.07;2.33;;;;;;;5.76;100.00;96881.63;5034601;28;24431;-77
2023/02/20 01:59:08;;;;;;;4.57;2.30;;;;;;;5.78;100.00;96885.88;5044446;28;24450;-79
2023/02/20 02:01:35;;;;;;;6.80;2.45;;;;;;;5.81;100.00;96882.34;5035023;28;24538;-78
2023/02/20 02:04:08;;;;;;;5.75;2.70;;;;;;;5.71;100.00;96878.31;5045248;28;24442;-76
2023/02/20 02:06:40;;;;;;;5.72;2.80;;;;;;;5.76;100.00;96867.06;5026791;28;21357;-78
2023/02/20 02:09:13;;;;;;;6.03;2.90;;;;;;;5.76;100.00;96869.63;5041049;28;20754;-78
2023/02/20 02:11:39;;;;;;;6.90;3.33;;;;;;;5.73;100.00;96872.28;5038207;28;24791;-78
2023/02/20 02:14:08;;;;;;;5.45;3.13;;;;;;;5.80;100.00;96872.97;5038573;28;24988;-78
2023/02/20 02:16:46;;;;;;;5.43;3.05;;;;;;;5.73;100.00;96879.13;5039059;28;24432;-78
2023/02/20 02:19:34;;;;;;;4.95;2.42;;;;;;;5.76;100.00;96873.94;5032717;28;24443;-78
2023/02/20 02:22:26;;;;;;;5.60;2.20;;;;;;;5.78;100.00;96870.44;5029997;28;24463;-77
2023/02/20 02:25:24;;;;;;;5.32;2.10;;;;;;;5.81;100.00;96872.91;5034087;28;24444;-78
2023/02/20 02:28:23;;;;;;;5.70;2.30;;;;;;;5.85;100.00;96871.09;5038375;28;20786;-78
2023/02/20 02:31:22;;;;;;;5.70;2.70;;;;;;;5.78;100.00;96869.56;5044682;28;20778;-78
2023/02/20 02:34:27;;;;;;;5.53;2.90;;;;;;;5.71;100.00;96871.47;4997326;28;24446;-76
2023/02/20 02:37:03;;;;;;;5.03;2.17;;;;;;;5.70;100.00;96868.94;5009941;28;24454;-78
2023/02/20 02:39:38;;;;;;;9.40;2.45;;;;;;;5.74;100.00;96855.94;5040349;28;24792;-78
2023/02/20 02:42:15;;;;;;;5.45;2.25;;;;;;;5.74;100.00;96853.38;5044534;28;20788;-78
2023/02/20 02:44:49;;;;;;;5.57;2.58;;;;;;;5.71;100.00;96856.06;5036797;28;24798;-78
2023/02/20 02:47:22;;;;;;;5.88;2.58;;;;;;;5.71;100.00;96855.19;5042359;28;24677;-78
2023/02/20 02:49:54;;;;;;;6.17;2.57;;;;;;;5.69;100.00;96850.09;5039726;28;24443;-78
2023/02/20 02:52:45;;;;;;;4.03;2.10;;;;;;;5.72;100.00;96852.59;5039020;28;24996;-78
2023/02/20 02:55:13;;;;;;;5.60;2.42;;;;;;;5.72;100.00;96854.31;5043675;28;24794;-77
2023/02/20 02:57:39;;;;;;;4.45;2.50;;;;;;;5.60;100.00;96860.63;5036259;28;24970;-76
2023/02/20 03:00:10;;;;;;;3.28;2.03;;;;;;;5.44;100.00;96855.03;5048319;28;24440;-78
2023/02/20 03:02:44;;;;;;;6.13;2.60;;;;;;;5.47;100.00;96854.94;5056460;28;24825;-76
2023/02/20 03:05:14;;;;;;;8.20;2.70;;;;;;;5.38;100.00;96856.91;5051788;28;24470;-77
2023/02/20 03:07:45;;;;;;;6.43;2.67;;;;;;;5.32;100.00;96857.91;5048014;28;24451;-76
2023/02/20 03:10:19;;;;;;;4.65;2.83;;;;;;;5.29;100.00;96857.97;5058850;28;24407;-78
2023/02/20 03:12:49;;;;;;;3.47;2.20;;;;;;;5.31;100.00;96858.78;5048761;28;24671;-78
2023/02/20 03:15:33;;;;;;;5.57;2.30;;;;;;;5.27;100.00;96862.31;5049911;28;24493;-78
2023/02/20 03:18:10;;;;;;;5.85;2.35;;;;;;;5.36;100.00;96866.38;5032816;28;24522;-77
2023/02/20 03:20:39;;;;;;;6.13;2.25;;;;;;;5.39;100.00;96861.16;5045560;28;24835;-77
2023/02/20 03:23:09;;;;;;;4.97;2.20;;;;;;;5.29;100.00;96860.53;5041116;28;24446;-77
2023/02/20 03:25:39;;;;;;;4.93;2.35;;;;;;;5.14;100.00;96864.31;5038386;28;20761;-78
2023/02/20 03:28:09;;;;;;;4.45;2.33;;;;;;;5.05;100.00;96855.13;5052710;28;24459;-78
2023/02/20 03:30:41;;;;;;;6.80;2.40;;;;;;;5.07;100.00;96842.25;5044833;28;25042;-78
2023/02/20 03:44:22;;;;;;;8.75;2.47;;;;;;;4.95;100.00;96851.06;5042930;28;24423;-78
2023/02/20 03:46:52;;;;;;;3.83;2.10;;;;;;;4.93;100.00;96857.13;5041867;28;24446;-78
2023/02/20 03:49:22;;;;;;;5.25;2.50;;;;;;;4.87;100.00;96847.00;5048015;28;24975;-77
2023/02/20 03:51:49;;;;;;;5.87;2.13;;;;;;;4.82;100.00;96857.34;5049355;28;24438;-77
2023/02/20 03:54:18;;;;;;;6.22;2.03;;;;;;;4.82;100.00;96854.78;5053318;28;24446;-78
2023/02/20 03:56:51;;;;;;;5.40;2.20;;;;;;;4.85;100.00;96841.91;5048650;28;24515;-77
2023/02/20 03:59:22;;;;;;;7.97;2.60;;;;;;;4.76;100.00;96849.81;5051987;28;24431;-78
2023/02/20 04:01:54;;;;;;;8.03;2.50;;;;;;;4.70;100.00;96837.97;5051842;28;24489;-78
2023/02/20 04:04:25;;;;;;;4.68;2.20;;;;;;;4.71;100.00;96847.38;5051956;28;24432;-78
2023/02/20 04:06:53;;;;;;;7.75;2.40;;;;;;;4.65;100.00;96839.78;5045383;28;24446;-77
2023/02/20 04:09:26;;;;;;;6.50;2.58;;;;;;;4.62;100.00;96837.28;5049621;28;24443;-76
2023/02/20 04:12:00;;;;;;;4.55;2.10;;;;;;;4.61;100.00;96833.03;5044704;28;24442;-78
2023/02/20 04:14:29;;;;;;;4.43;2.10;;;;;;;4.63;100.00;96820.16;5045009;28;24842;-77
2023/02/20 04:17:00;;;;;;;5.65;2.42;;;;;;;4.64;100.00;96819.31;5039769;28;24446;-78
2023/02/20 04:19:27;;;;;;;4.78;2.33;;;;;;;4.64;100.00;96821.88;5043593;28;24436;-77
2023/02/20 04:21:56;;;;;;;7.00;2.60;;;;;;;4.55;100.00;96826.31;5042665;28;24462;-78
2023/02/20 04:24:29;;;;;;;8.77;2.65;;;;;;;4.50;100.00;96811.91;5043183;28;24815;-78
2023/02/20 04:26:56;;;;;;;6.07;2.55;;;;;;;4.53;100.00;96814.41;5045802;28;24439;-77
2023/02/20 04:29:23;;;;;;;6.70;2.67;;;;;;;4.46;100.00;96816.28;5055422;28;24431;-77
2023/02/20 04:31:50;;;;;;;6.20;2.33;;;;;;;4.42;100.00;96819.78;5056504;28;24431;-78
2023/02/20 04:34:16;;;;;;;3.83;2.25;;;;;;;4.45;100.00;96808.59;5043651;28;24442;-77
2023/02/20 04:36:43;;;;;;;6.03;2.50;;;;;;;4.39;100.00;96817.28;5042719;28;24434;-78
2023/02/20 04:39:09;;;;;;;5.87;2.30;;;;;;;4.39;100.00;96809.59;5044254;28;24431;-77
2023/02/20 04:41:37;;;;;;;6.43;2.30;;;;;;;4.43;100.00;96818.91;5053444;28;24535;-77
2023/02/20 04:46:48;;;;;;;4.28;2.40;;;;;;;4.38;100.00;96810.47;5056287;28;24834;-77
2023/02/20 04:49:14;;;;;;;4.68;2.35;;;;;;;4.44;100.00;96820.56;5057065;28;24824;-77
2023/02/20 04:51:41;;;;;;;6.85;2.58;;;;;;;4.40;100.00;96816.38;5039956;28;24459;-77
2023/02/20 04:54:07;;;;;;;5.40;2.38;;;;;;;4.42;100.00;96824.91;5038365;28;24439;-79
2023/02/20 04:56:34;;;;;;;6.30;2.80;;;;;;;4.33;100.00;96818.25;5041470;28;24435;-77
2023/02/20 04:59:01;;;;;;;7.90;2.63;;;;;;;4.36;100.00;96819.91;5045434;28;24461;-78
2023/02/20 05:01:28;;;;;;;7.75;2.47;;;;;;;4.31;100.00;96826.88;5034092;28;24456;-77
2023/02/20 05:03:54;;;;;;;5.90;2.70;;;;;;;4.38;100.00;96818.16;5052320;28;24446;-78
2023/02/20 05:06:21;;;;;;;6.35;2.83;;;;;;;4.33;100.00;96819.97;5040928;28;24447;-78
2023/02/20 05:08:47;;;;;;;5.47;2.58;;;;;;;4.28;100.00;96821.78;5036536;28;24451;-78
2023/02/20 05:11:14;;;;;;;7.32;2.40;;;;;;;4.27;100.00;96820.13;5042965;28;24439;-77
2023/02/20 05:13:40;;;;;;;4.90;2.70;;;;;;;4.27;100.00;96828.66;5046119;28;24439;-77
2023/02/20 05:16:08;;;;;;;7.63;2.33;;;;;;;4.22;100.00;96833.00;5038309;28;24428;-76
2023/02/20 05:18:35;;;;;;;10.43;2.75;;;;;;;4.15;100.00;96830.59;5032936;28;24473;-76
2023/02/20 05:23:46;;;;;;;4.40;2.50;;;;;;;4.15;100.00;96831.44;5029701;28;24436;-77
2023/02/20 05:26:16;;;;;;;7.82;3.22;;;;;;;4.20;100.00;96833.94;5024296;28;25000;-77
2023/02/20 05:28:44;;;;;;;6.63;2.57;;;;;;;4.25;100.00;96830.38;5036086;28;24794;-77
2023/02/20 05:31:12;;;;;;;5.80;2.92;;;;;;;4.19;100.00;96821.97;5037389;28;24506;-77
2023/02/20 05:33:38;;;;;;;5.80;2.47;;;;;;;4.11;100.00;96824.69;5045425;28;24432;-77
2023/02/20 05:36:06;;;;;;;6.20;2.55;;;;;;;4.09;100.00;96819.59;5045001;28;24436;-76
2023/02/20 05:38:32;;;;;;;5.63;2.50;;;;;;;4.02;100.00;96812.06;5044409;28;24440;-77
2023/02/20 05:40:58;;;;;;;7.10;2.83;;;;;;;3.96;100.00;96807.91;5042820;28;24435;-76
2023/02/20 05:43:25;;;;;;;5.38;2.90;;;;;;;3.95;100.00;96808.78;5041207;28;24451;-77
2023/02/20 05:45:51;;;;;;;8.38;3.08;;;;;;;3.90;100.00;96808.03;5044748;28;24428;-77
2023/02/20 05:48:19;;;;;;;12.77;3.42;;;;;;;3.86;100.00;96801.28;5041686;28;24439;-77
2023/02/20 05:50:46;;;;;;;7.65;2.97;;;;;;;3.87;100.00;96801.25;5037956;28;24993;-77
2023/02/20 05:53:12;;;;;;;8.25;3.28;;;;;;;3.81;100.00;96805.66;5027249;28;24428;-77
2023/02/20 05:55:39;;;;;;;6.93;2.60;;;;;;;3.83;100.00;96812.44;5029318;28;24799;-77
2023/02/20 05:58:05;;;;;;;8.25;2.58;;;;;;;3.83;100.00;96803.91;5029418;28;24442;-77
2023/02/20 06:00:32;;;;;;;8.43;3.20;;;;;;;3.69;100.00;96806.72;5035706;28;24794;-77
2023/02/20 06:02:58;;;;;;;8.85;3.28;;;;;;;3.60;100.00;96805.19;5046062;28;24451;-77
2023/02/20 06:05:27;;;;;;;5.70;2.88;;;;;;;3.60;100.00;96807.75;5028958;28;24447;-78
2023/02/20 06:07:53;;;;;;;6.93;3.43;;;;;;;3.57;100.00;96812.09;5026587;28;24448;-78
2023/02/20 06:10:20;;;;;;;5.70;2.80;;;;;;;3.66;100.00;96821.31;5042539;28;24516;-77
2023/02/20 06:12:47;;;;;;;7.82;3.20;;;;;;;3.61;100.00;96814.56;5035135;28;24825;-76
2023/02/20 06:15:13;;;;;;;4.75;2.80;;;;;;;3.52;100.00;96816.44;5036529;28;24969;-77
2023/02/20 06:17:39;;;;;;;6.13;2.97;;;;;;;3.42;100.00;96817.50;5038076;28;24475;-76
2023/02/20 06:20:07;;;;;;;6.57;3.15;;;;;;;3.37;100.00;96815.88;5051991;28;24442;-76
2023/02/20 06:22:35;;;;;;;7.35;3.10;;;;;;;3.32;100.00;96822.78;5028559;28;24448;-76
2023/02/20 06:25:01;;;;;;;6.72;3.13;;;;;;;3.31;100.00;96815.97;5034718;28;24981;-76
2023/02/20 06:27:28;;;;;;;4.88;2.72;;;;;;;3.41;100.00;96811.50;5037381;28;24444;-77
2023/02/20 06:29:54;;;;;;;6.28;2.55;;;;;;;3.39;100.00;96811.56;5034643;28;24451;-77
2023/02/20 06:32:21;;;;;;;7.50;2.72;;;;;;;3.39;100.00;96814.13;5032048;28;24443;-76
2023/02/20 06:34:47;;;;;;;6.75;3.10;;;;;;;3.32;100.00;96821.94;5034453;28;24431;-77
2023/02/20 06:37:14;;;;;;;7.43;3.83;;;;;;;3.23;100.00;96814.41;5041590;28;25000;-77
2023/02/20 06:39:44;;;;;;;11.65;5.00;;;;;;;3.12;100.00;96818.00;5038900;28;24781;-78
2023/02/20 06:42:11;;;;;;;10.10;3.03;;;;;;;3.14;100.00;96815.41;5034098;28;24459;-77
2023/02/20 06:44:37;;;;;;;12.33;3.83;;;;;;;3.05;100.00;96818.97;5035140;28;24432;-77
2023/02/20 06:47:07;;;;;;;6.53;3.42;;;;;;;3.06;100.00;96817.25;5043259;28;24458;-78
2023/02/20 06:49:34;;;;;;;7.68;3.28;;;;;;;3.15;100.00;96825.63;5039404;28;24991;-78
2023/02/20 06:52:00;;;;;;;6.97;3.35;;;;;;;3.19;100.00;96825.56;5031609;28;24439;-77
2023/02/20 06:54:27;;;;;;;10.85;3.58;;;;;;;3.32;100.00;96837.28;5036339;28;24442;-76
2023/02/20 06:56:56;;;;;;;6.57;3.42;;;;;;;3.38;100.00;96843.16;5037984;28;24446;-83
2023/02/20 06:59:23;;;;;;;6.00;3.38;;;;;;;3.43;100.00;96852.47;5043856;28;24443;-74
2023/02/20 07:01:50;;;;;;;6.25;3.78;;;;;;;3.47;100.00;96849.00;5033120;28;24431;-76
2023/02/20 07:04:18;;;;;;;7.25;3.55;;;;;;;3.38;100.00;96843.16;5030316;28;24440;-76
2023/02/20 07:06:45;;;;;;;7.57;3.28;;;;;;;3.43;100.00;96844.78;5033369;28;24443;-78
2023/02/20 07:09:12;;;;;;;6.07;3.33;;;;;;;3.62;100.00;96838.47;5039482;28;24527;-77
2023/02/20 07:11:40;;;;;;;6.85;3.70;;;;;;;3.70;100.00;96846.84;5036241;28;24569;-78
2023/02/20 07:14:08;;;;;;;4.78;2.83;;;;;;;3.84;100.00;96847.44;5036866;28;24439;-80
2023/02/20 07:16:34;;;;;;;5.37;3.13;;;;;;;3.94;100.00;96852.41;5031993;28;24488;-75
2023/02/20 07:19:01;;;;;;;6.60;3.17;;;;;;;4.12;100.00;96855.44;5036856;28;24441;-78
2023/02/20 07:21:27;;;;;;;6.32;3.47;;;;;;;4.18;100.00;96848.50;5031056;28;24838;-78
2023/02/20 07:23:54;;;;;;;5.05;3.20;;;;;;;4.33;100.00;96851.56;5037662;28;24451;-71
2023/02/20 07:26:22;;;;;;;5.72;3.13;;;;;;;4.41;100.00;96853.97;5035926;28;24818;-77
2023/02/20 07:28:49;;;;;;;6.63;3.00;;;;;;;4.64;100.00;96850.09;5035066;28;24446;-83
2023/02/20 07:31:17;;;;;;;7.40;3.00;;;;;;;4.77;100.00;96841.22;5036139;28;24435;-78
2023/02/20 07:33:43;;;;;;;9.57;3.20;;;;;;;4.69;100.00;96843.97;5030325;28;24428;-76
2023/02/20 07:36:10;;;;;;;5.22;2.85;;;;;;;4.64;100.00;96853.50;5027091;28;24443;-76
2023/02/20 07:38:36;;;;;;;6.68;3.35;;;;;;;4.49;100.00;96861.53;5038906;28;24779;-76
2023/02/20 07:41:05;;;;;;;6.80;3.20;;;;;;;4.53;100.00;96858.03;5039256;28;24431;-76
2023/02/20 07:43:31;;;;;;;12.77;3.95;;;;;;;4.65;100.00;96857.75;5032677;28;24448;-76
2023/02/20 07:45:57;;;;;;;7.30;3.28;;;;;;;4.66;100.00;96856.03;5034975;28;24672;-77
2023/02/20 07:48:25;;;;;;;6.30;3.50;;;;;;;4.75;100.00;96851.53;5042792;28;24448;-81
2023/02/20 07:50:52;;;;;;;7.65;3.58;;;;;;;4.87;100.00;96852.16;5027779;28;24814;-77
2023/02/20 07:53:20;;;;;;;9.30;3.42;;;;;;;5.14;100.00;96843.78;5037356;28;24478;-77
2023/02/20 07:55:47;;;;;;;14.30;3.35;;;;;;;5.19;100.00;96849.66;5040659;28;20777;-78
2023/02/20 07:58:13;;;;;;;10.90;3.38;;;;;;;5.22;100.00;96851.28;5047518;28;24978;-78
2023/02/20 08:00:39;;;;;;;6.30;3.67;;;;;;;5.24;100.00;96852.13;5049499;28;21139;-78
2023/02/20 08:03:06;;;;;;;6.50;3.33;;;;;;;5.19;100.00;96859.94;5045683;28;24455;-78
2023/02/20 08:05:34;;;;;;;5.40;3.13;;;;;;;5.25;100.00;96856.38;5037579;28;24483;-77
2023/02/20 08:08:00;;;;;;;6.65;3.10;;;;;;;5.22;100.00;96857.28;5035418;28;24459;-77
2023/02/20 08:10:28;;;;;;;7.65;3.15;;;;;;;5.22;100.00;96852.13;5042238;28;24442;-78
2023/02/20 08:12:55;;;;;;;6.38;3.20;;;;;;;5.40;100.00;96850.00;5032950;28;24439;-79
2023/02/20 08:15:22;;;;;;;6.00;3.53;;;;;;;5.22;100.00;96841.88;5040296;28;24436;-78
2023/02/20 08:17:49;;;;;;;5.75;3.65;;;;;;;5.41;100.00;96849.94;5036616;28;24442;-77
2023/02/20 08:20:19;;;;;;;8.75;3.42;;;;;;;5.51;100.00;96841.13;5046760;28;24450;-78
2023/02/20 08:22:48;;;;;;;6.70;3.63;;;;;;;5.63;100.00;96844.28;5041465;28;24563;-78
2023/02/20 08:25:16;;;;;;;5.95;3.45;;;;;;;5.78;100.00;96844.72;5032313;28;24439;-79
2023/02/20 08:27:43;;;;;;;16.02;3.53;;;;;;;6.00;100.00;96844.16;5041521;28;24443;-78
2023/02/20 08:30:11;;;;;;;8.02;3.55;;;;;;;6.05;100.00;96852.63;5047968;28;24805;-78
2023/02/20 08:32:38;;;;;;;5.85;3.03;;;;;;;6.17;100.00;96844.53;5042912;28;24424;-78
2023/02/20 08:35:05;;;;;;;6.45;2.90;;;;;;;6.12;100.00;96846.41;5042013;28;24435;-78
2023/02/20 08:37:31;;;;;;;7.07;3.07;;;;;;;6.33;100.00;96842.38;5045426;28;24805;-78
2023/02/20 08:39:59;;;;;;;5.03;2.93;;;;;;;6.48;100.00;96838.50;5042138;28;24482;-76
2023/02/20 08:42:26;;;;;;;5.45;3.05;;;;;;;6.46;100.00;96837.72;5035780;28;24459;-79
2023/02/20 08:44:52;;;;;;;7.90;3.38;;;;;;;6.66;100.00;96839.69;5038249;28;24435;-71
2023/02/20 08:47:19;;;;;;;14.02;3.78;;;;;;;6.58;100.00;96832.22;5041210;28;24439;-77
2023/02/20 08:49:46;;;;;;;6.40;3.13;;;;;;;6.67;100.00;96831.06;5036529;28;24443;-77
2023/02/20 08:52:13;;;;;;;7.55;3.33;;;;;;;6.93;100.00;96828.53;5039275;28;24434;-77
2023/02/20 08:54:39;;;;;;;5.03;2.83;;;;;;;7.14;100.00;96823.59;5038153;28;24439;-77
2023/02/20 08:57:07;;;;;;;6.85;2.65;;;;;;;7.18;100.00;96822.59;5033638;28;25012;-78
2023/02/20 08:59:34;;;;;;;5.43;2.97;;;;;;;7.55;100.00;96823.97;5028832;28;24810;-79
2023/02/20 09:02:00;;;;;;;11.95;2.85;;;;;;;7.67;100.00;96818.38;5028125;28;24850;-79
2023/02/20 09:04:26;;;;;;;6.80;3.15;;;;;;;7.74;100.00;96823.28;5036984;28;20794;-78
2023/02/20 09:06:53;;;;;;;5.82;3.20;;;;;;;7.84;100.00;96816.06;5029124;28;24436;-78
2023/02/20 09:09:19;;;;;;;5.82;2.80;;;;;;;7.85;100.00;96816.91;5035279;28;24455;-78
2023/02/20 09:11:46;;;;;;;4.85;2.35;;;;;;;7.85;100.00;96822.06;5032838;28;24459;-78
2023/02/20 09:14:14;;;;;;;6.63;2.67;;;;;;;8.12;100.00;96812.50;5034056;28;24435;-78
2023/02/20 09:16:41;;;;;;;7.75;2.80;;;;;;;8.04;100.00;96812.75;5037996;28;21151;-77
2023/02/20 09:19:07;;;;;;;6.63;2.75;;;;;;;8.60;100.00;96821.91;5042608;28;20781;-77
2023/02/20 09:21:34;;;;;;;5.93;2.72;;;;;;;8.97;100.00;96818.75;5037643;28;24443;-77
2023/02/20 09:24:01;;;;;;;6.35;2.90;;;;;;;8.91;100.00;96813.84;5031541;28;24490;-78
2023/02/20 09:26:27;;;;;;;5.97;2.35;;;;;;;9.23;100.00;96807.34;5030983;28;20799;-77
2023/02/20 09:28:54;;;;;;;4.90;2.45;;;;;;;9.14;100.00;96807.75;5034417;28;24446;-78
2023/02/20 09:31:22;;;;;;;8.15;2.80;;;;;;;9.21;100.00;96801.44;5021987;28;24443;-77
2023/02/20 09:33:48;;;;;;;6.97;2.70;;;;;;;9.75;100.00;96809.50;5038397;28;24439;-76
2023/02/20 09:36:14;;;;;;;4.93;2.22;;;;;;;10.09;100.00;96801.16;5034557;28;24450;-76
2023/02/20 09:38:41;;;;;;;6.05;2.38;;;;;;;10.49;100.00;96800.19;5024955;28;24451;-77
2023/02/20 09:41:19;;;;;;;4.10;2.30;;;;;;;10.19;100.00;96799.81;5028296;28;24464;-76
2023/02/20 09:43:52;;;;;;;5.75;2.53;;;;;;;10.22;100.00;96799.66;5035073;28;24830;-75
2023/02/20 09:46:22;;;;;;;4.45;2.60;;;;;;;9.96;100.00;96805.16;5029631;28;24435;-76
2023/02/20 09:49:04;;;;;;;5.45;2.60;;;;;;;10.26;100.00;96809.00;5035118;28;24468;-76
2023/02/20 09:51:33;;;;;;;4.35;2.20;;;;;;;10.05;100.00;96797.84;5028360;28;24493;-76
2023/02/20 09:54:04;;;;;;;6.00;2.22;;;;;;;10.12;100.00;96796.66;5042964;28;24442;-77
2023/02/20 09:56:34;;;;;;;4.30;2.20;;;;;;;9.93;100.00;96793.19;5026717;28;24443;-77
2023/02/20 09:59:07;;;;;;;5.88;2.28;;;;;;;9.85;100.00;96788.34;5034909;28;24432;-77
2023/02/20 10:01:39;;;;;;;4.70;2.20;;;;;;;10.50;100.00;96775.16;5035590;28;24431;-77
2023/02/20 10:04:10;;;;;;;4.47;2.22;;;;;;;10.82;100.00;96771.88;5043527;28;24454;-78
2023/02/20 10:06:37;;;;;;;5.82;2.45;;;;;;;11.36;100.00;96772.69;5029315;28;24440;-77
2023/02/20 10:09:10;;;;;;;4.47;2.05;;;;;;;10.85;96.62;96761.34;5040326;28;24438;-79
2023/02/20 10:11:57;;;;;;;6.55;2.60;;;;;;;11.01;96.99;96766.66;5035622;28;24834;-77
2023/02/20 10:14:37;;;;;;;5.65;2.10;;;;;;;11.37;94.88;96763.97;5034106;28;24435;-79
2023/02/20 10:17:16;;;;;;;5.32;2.40;;;;;;;11.64;95.06;96750.53;5030385;28;24515;-79
2023/02/20 10:19:50;;;;;;;4.07;1.90;;;;;;;11.96;91.07;96753.25;5034549;28;24795;-77
2023/02/20 10:22:20;;;;;;;3.20;1.50;;;;;;;11.94;90.04;96755.06;5031180;28;24443;-78
2023/02/20 10:25:00;;;;;;;8.55;1.90;;;;;;;11.72;85.69;96753.59;5038026;28;24854;-78
2023/02/20 10:27:33;;;;;;;7.97;1.90;;;;;;;11.47;86.49;96755.75;5035478;28;24442;-79
2023/02/20 10:30:04;;;;;;;3.78;1.30;;;;;;;11.33;81.22;96746.91;5029569;28;24451;-78
2023/02/20 10:32:38;;;;;;;3.80;1.58;;;;;;;11.20;83.70;96750.16;5034942;28;25086;-79
2023/02/20 10:35:08;;;;;;;3.30;1.52;;;;;;;11.36;82.75;96746.75;5032486;28;25003;-79
2023/02/20 10:37:40;;;;;;;2.85;1.20;;;;;;;11.38;82.43;96738.88;5038199;28;24444;-78
2023/02/20 10:40:16;;;;;;;3.00;1.20;;;;;;;11.45;79.51;96737.66;5033732;28;24999;-77
2023/02/20 10:42:47;;;;;;;5.00;1.45;;;;;;;11.68;80.62;96739.09;5040655;28;24801;-77
2023/02/20 10:45:26;;;;;;;3.42;1.35;;;;;;;11.52;79.63;96739.03;5038479;28;24435;-78
2023/02/20 10:48:01;;;;;;;8.07;0.90;;;;;;;11.35;79.23;96737.31;5032417;28;24439;-77
2023/02/20 10:50:33;;;;;;;3.78;1.08;;;;;;;11.35;78.45;96737.31;5032342;28;24435;-78
2023/02/20 10:53:04;;;;;;;3.65;1.20;;;;;;;11.70;78.25;96729.47;5045833;28;24440;-79
2023/02/20 10:55:40;;;;;;;2.22;1.35;;;;;;;11.96;76.82;96732.47;5038181;28;24798;-76
2023/02/20 10:58:14;;;;;;;2.42;1.27;;;;;;;11.95;74.45;96736.84;5031215;28;24443;-77
2023/02/20 11:00:47;;;;;;;1.90;0.80;;;;;;;12.15;70.79;96738.38;5030412;28;24447;-77
2023/02/20 11:03:19;;;;;;;2.92;1.30;;;;;;;12.39;70.24;96725.00;5034520;28;24459;-78
2023/02/20 11:05:51;;;;;;;2.22;1.10;;;;;;;12.28;66.50;96734.19;5032252;28;24448;-78
2023/02/20 11:08:20;;;;;;;3.20;0.87;;;;;;;12.50;67.22;96728.69;5036275;28;24542;-78
2023/02/20 11:10:47;;;;;;;2.45;0.90;;;;;;;12.33;66.40;96721.78;5035870;28;24467;-76
2023/02/20 11:13:17;;;;;;;1.92;0.80;;;;;;;12.08;66.29;96722.28;5032693;28;24518;-75
2023/02/20 11:15:44;;;;;;;2.92;0.93;;;;;;;12.27;66.50;96724.75;5034413;28;24439;-76
2023/02/20 11:18:20;;;;;;;2.00;0.90;;;;;;;12.10;65.14;96719.59;5038559;28;24446;-76
2023/02/20 11:20:48;;;;;;;2.25;1.00;;;;;;;12.04;64.86;96723.34;5041872;28;24494;-77
2023/02/20 11:23:37;;;;;;;2.20;0.80;;;;;;;11.92;64.55;96713.63;5031111;28;24456;-77
2023/02/20 11:26:27;;;;;;;2.95;1.00;;;;;;;11.95;62.88;96712.66;5030546;28;24449;-77
2023/02/20 11:28:59;;;;;;;2.33;1.00;;;;;;;12.01;62.55;96705.34;5033927;28;25043;-77
2023/02/20 11:31:26;;;;;;;3.28;0.95;;;;;;;12.00;61.55;96706.28;5042254;28;24436;-77
2023/02/20 11:33:55;;;;;;;4.43;0.90;;;;;;;12.14;59.43;96702.94;5044614;28;24436;-76
2023/02/20 11:36:24;;;;;;;2.43;1.10;;;;;;;12.16;59.09;96697.66;5042311;28;24468;-78
2023/02/20 11:38:57;;;;;;;2.95;0.90;;;;;;;12.33;59.66;96701.00;5044103;28;24447;-77
2023/02/20 11:41:28;;;;;;;1.80;0.68;;;;;;;12.27;61.14;96696.16;5042032;28;24424;-78
2023/02/20 11:44:18;;;;;;;2.60;0.97;;;;;;;12.17;57.51;96681.16;5029820;28;24543;-78
2023/02/20 11:46:46;;;;;;;2.22;0.80;;;;;;;12.17;56.22;96687.19;5041107;28;24443;-77
2023/02/20 11:49:23;;;;;;;2.85;0.80;;;;;;;12.19;56.21;96679.31;5038655;28;24817;-77
2023/02/20 11:51:50;;;;;;;1.77;0.82;;;;;;;12.20;56.86;96670.59;5037701;28;24430;-78
2023/02/20 11:54:20;;;;;;;1.80;0.70;;;;;;;12.20;55.85;96666.25;5048723;28;24987;-77
2023/02/20 11:57:00;;;;;;;1.73;0.68;;;;;;;12.16;55.67;96664.72;5030675;28;25019;-77
2023/02/20 11:59:31;;;;;;;2.20;0.73;;;;;;;12.16;54.84;96656.09;5038973;28;24428;-77